Time;durP1;ratioP1;P1;durP2;ratioP2;P2;SDS_P1;SDS_P2;PMS_P1;PMS_P2;Temp;Humidity;BMP_temperature;BMP_pressure;BME280_temperature;BME280_humidity;BME280_pressure;Samples;Min_cycle;Max_cycle;Signal;HPM_P1;HPM_P2
2023/12/13 00:01:32;;;;;;;2.08;1.98;;;8.00;99.90;;;8.50;100.00;96540.69;10363634;28;20230;-67
2023/12/13 00:06:35;;;;;;;2.28;2.03;;;8.00;99.90;;;8.49;100.00;96541.47;10361259;28;20687;-67
2023/12/13 00:11:40;;;;;;;2.65;2.45;;;8.00;99.90;;;8.47;100.00;96538.00;10367223;28;20234;-67
2023/12/13 00:16:43;;;;;;;2.03;1.90;;;8.00;99.90;;;8.46;100.00;96535.38;10360988;28;20241;-66
2023/12/13 00:21:46;;;;;;;2.00;1.90;;;8.00;99.90;;;8.45;100.00;96539.63;10361482;28;21029;-67
2023/12/13 00:26:50;;;;;;;1.67;1.58;;;8.00;99.90;;;8.45;100.00;96544.72;10371550;28;20226;-67
2023/12/13 00:31:54;;;;;;;4.18;1.50;;;7.90;99.90;;;8.45;100.00;96549.78;10359786;28;20313;-65
2023/12/13 00:36:57;;;;;;;2.17;1.90;;;7.90;99.90;;;8.44;100.00;96540.44;10364131;28;20233;-67
2023/12/13 00:42:01;;;;;;;2.53;1.95;;;7.90;99.90;;;8.42;100.00;96534.38;10369414;28;20228;-67
2023/12/13 00:47:05;;;;;;;2.17;1.52;;;7.90;99.90;;;8.42;100.00;96531.84;10362330;28;20222;-67
2023/12/13 00:52:08;;;;;;;1.95;1.83;;;7.90;99.90;;;8.62;100.00;96506.38;10354832;28;20309;-67
2023/12/13 00:57:12;;;;;;;2.42;1.70;;;8.00;99.90;;;8.28;100.00;96509.97;10372767;28;20242;-67
2023/12/13 01:02:16;;;;;;;1.98;1.80;;;7.70;99.90;;;8.12;100.00;96508.41;10361263;28;20230;-67
2023/12/13 01:07:19;;;;;;;2.40;2.20;;;7.60;99.90;;;8.01;100.00;96517.25;10360024;28;20598;-67
2023/12/13 01:12:23;;;;;;;2.50;2.30;;;7.40;99.90;;;7.87;100.00;96511.56;10355857;28;20232;-67
2023/12/13 01:17:26;;;;;;;3.57;2.70;;;7.30;99.90;;;7.64;100.00;96518.09;10361565;28;20230;-71
2023/12/13 01:22:30;;;;;;;2.80;2.60;;;7.10;99.90;;;7.59;100.00;96519.59;10366011;28;20226;-68
2023/12/13 01:27:34;;;;;;;1.83;1.63;;;7.00;99.90;;;7.46;100.00;96515.56;10368146;28;20222;-69
2023/12/13 01:32:38;;;;;;;2.38;2.20;;;7.00;99.90;;;7.56;100.00;96509.28;10367946;28;20363;-71
2023/12/13 01:37:41;;;;;;;2.88;2.33;;;7.00;99.90;;;7.47;100.00;96513.91;10361110;28;20234;-67
2023/12/13 01:42:46;;;;;;;2.00;1.90;;;6.90;99.90;;;7.47;100.00;96502.09;10360130;28;20226;-67
2023/12/13 01:47:49;;;;;;;2.30;1.83;;;6.90;99.90;;;7.41;100.00;96504.31;10358890;28;20226;-67
2023/12/13 01:52:54;;;;;;;1.70;1.60;;;6.80;99.90;;;7.34;100.00;96504.84;10358100;28;20663;-67
2023/12/13 01:57:59;;;;;;;2.90;1.77;;;6.80;99.90;;;7.53;100.00;96498.97;10363583;28;20231;-68
2023/12/13 02:03:02;;;;;;;2.77;2.17;;;6.90;99.90;;;7.48;100.00;96501.28;10359055;28;20225;-68
2023/12/13 02:08:07;;;;;;;2.60;2.40;;;6.80;99.90;;;7.33;100.00;96495.47;10353915;28;20225;-66
2023/12/13 02:13:13;;;;;;;3.33;2.60;;;6.60;99.90;;;7.18;100.00;96493.06;10361527;28;20230;-66
2023/12/13 02:18:16;;;;;;;4.33;2.13;;;6.60;99.90;;;7.08;100.00;96489.22;10355125;28;20245;-67
2023/12/13 02:23:21;;;;;;;1.73;1.57;;;6.60;99.90;;;6.96;100.00;96483.56;10358532;28;20248;-67
2023/12/13 02:28:25;;;;;;;2.03;1.90;;;6.50;99.90;;;6.99;100.00;96469.31;10354192;28;20234;-67
2023/12/13 02:33:30;;;;;;;2.13;1.27;;;6.50;99.90;;;7.13;100.00;96471.66;10362239;28;20277;-67
2023/12/13 02:38:35;;;;;;;4.20;1.80;;;6.60;99.90;;;7.41;100.00;96463.66;10359663;28;20237;-67
2023/12/13 02:43:38;;;;;;;3.57;1.87;;;6.90;99.90;;;7.49;100.00;96458.94;10362120;28;20270;-66
2023/12/13 02:48:41;;;;;;;3.50;1.83;;;7.00;99.90;;;7.60;100.00;96461.16;10356425;28;20226;-67
2023/12/13 02:53:46;;;;;;;2.33;2.00;;;7.10;99.90;;;7.75;100.00;96455.03;10354584;28;20241;-66
2023/12/13 02:58:49;;;;;;;3.37;2.10;;;7.20;99.90;;;7.50;100.00;96453.94;10359310;28;20227;-68
2023/12/13 03:03:52;;;;;;;2.53;2.33;;;7.00;99.90;;;7.40;100.00;96461.91;10352805;28;20234;-66
2023/12/13 03:08:57;;;;;;;2.47;2.33;;;6.90;99.90;;;7.29;100.00;96453.78;10360806;28;20234;-66
2023/12/13 03:14:00;;;;;;;2.23;2.03;;;6.80;99.90;;;7.31;100.00;96456.41;10359120;28;20231;-67
2023/12/13 03:19:03;;;;;;;3.53;2.47;;;6.80;99.90;;;7.17;100.00;96453.22;10357583;28;20230;-67
2023/12/13 03:24:08;;;;;;;2.40;1.93;;;6.60;99.90;;;7.15;100.00;96455.69;10358737;28;20316;-67
2023/12/13 03:29:11;;;;;;;1.60;1.50;;;6.60;99.90;;;7.11;100.00;96446.19;10360990;28;20240;-68
2023/12/13 03:34:15;;;;;;;2.53;2.00;;;6.60;99.90;;;7.10;100.00;96431.75;10363563;28;20710;-67
2023/12/13 03:39:19;;;;;;;3.60;1.80;;;6.60;99.90;;;7.13;100.00;96426.81;10363737;28;20705;-67
2023/12/13 03:44:22;;;;;;;3.00;1.90;;;6.60;99.90;;;7.15;100.00;96412.50;10368432;28;20276;-67
2023/12/13 03:49:26;;;;;;;1.80;1.70;;;6.70;99.90;;;7.29;100.00;96414.78;10369489;28;20234;-69
2023/12/13 03:54:30;;;;;;;2.13;2.03;;;6.70;99.90;;;7.20;100.00;96413.56;10365383;28;20236;-66
2023/12/13 03:59:34;;;;;;;3.43;2.70;;;6.60;99.90;;;7.09;100.00;96407.13;10363980;28;20321;-66
2023/12/13 04:04:37;;;;;;;4.37;2.87;;;6.50;99.90;;;7.10;100.00;96418.19;10360496;28;20728;-65
2023/12/13 04:09:41;;;;;;;1.83;1.73;;;6.60;99.90;;;7.14;100.00;96431.06;10364743;28;20565;-65
2023/12/13 04:14:45;;;;;;;2.00;1.80;;;6.60;99.90;;;7.18;100.00;96435.53;10374784;28;20222;-68
2023/12/13 04:19:48;;;;;;;5.90;2.10;;;6.60;99.90;;;7.32;100.00;96453.06;10356242;28;20244;-67
2023/12/13 04:24:52;;;;;;;3.37;2.63;;;6.70;99.90;;;7.49;100.00;96436.91;10365917;28;20214;-67
2023/12/13 04:29:56;;;;;;;2.67;2.47;;;6.80;99.90;;;7.28;100.00;96425.78;10374223;28;20240;-66
2023/12/13 04:34:59;;;;;;;3.40;3.07;;;6.60;99.90;;;7.19;100.00;96427.09;10361362;28;20226;-68
2023/12/13 04:40:04;;;;;;;4.80;4.10;;;6.60;99.90;;;7.32;100.00;96420.03;10367290;28;20308;-65
2023/12/13 04:45:09;;;;;;;3.90;3.60;;;6.70;99.90;;;7.20;100.00;96417.78;10364545;28;20230;-65
2023/12/13 04:50:13;;;;;;;4.97;3.47;;;6.60;99.90;;;7.17;100.00;96415.97;10368384;28;20287;-68
2023/12/13 04:55:17;;;;;;;4.30;3.90;;;6.60;99.90;;;7.14;100.00;96413.28;10365133;28;20235;-66
2023/12/13 05:00:21;;;;;;;4.70;4.30;;;6.60;99.90;;;7.10;100.00;96411.41;10365719;28;20272;-66
2023/12/13 05:05:24;;;;;;;5.00;3.60;;;6.50;99.90;;;7.06;100.00;96417.13;10361083;28;20245;-65
2023/12/13 05:10:28;;;;;;;5.43;3.70;;;6.50;99.90;;;7.09;100.00;96402.03;10362401;28;20722;-65
2023/12/13 05:15:32;;;;;;;3.47;3.17;;;6.50;99.90;;;6.92;100.00;96395.28;10361938;28;20285;-69
2023/12/13 05:20:35;;;;;;;3.53;3.23;;;6.30;99.90;;;6.81;100.00;96381.22;10360627;28;20396;-66
2023/12/13 05:25:40;;;;;;;3.27;2.97;;;6.20;99.90;;;6.67;100.00;96378.91;10362828;28;20240;-67
2023/12/13 05:30:43;;;;;;;2.73;2.53;;;6.20;99.90;;;6.69;100.00;96387.44;10379044;28;20232;-67
2023/12/13 05:35:46;;;;;;;6.73;3.30;;;6.20;99.90;;;6.75;100.00;96374.19;10378332;28;20262;-68
2023/12/13 05:40:51;;;;;;;3.60;3.07;;;6.20;99.90;;;6.79;100.00;96375.22;10372685;28;20235;-67
2023/12/13 05:45:54;;;;;;;7.20;5.30;;;6.10;99.90;;;6.63;100.00;96366.84;10372890;28;20226;-68
2023/12/13 05:50:57;;;;;;;6.57;5.43;;;6.10;99.90;;;6.67;100.00;96371.31;10368251;28;20226;-66
2023/12/13 05:56:02;;;;;;;5.60;5.10;;;6.20;99.90;;;6.75;100.00;96377.63;10370406;28;20218;-67
2023/12/13 06:01:06;;;;;;;8.37;7.57;;;6.20;99.90;;;6.95;100.00;96375.13;10372003;28;20234;-67
2023/12/13 06:06:10;;;;;;;8.43;7.63;;;6.40;99.90;;;6.89;100.00;96370.63;10376151;28;20280;-67
2023/12/13 06:11:14;;;;;;;8.97;7.60;;;6.40;99.90;;;6.84;100.00;96368.66;10378844;28;20257;-67
2023/12/13 06:16:18;;;;;;;6.93;6.23;;;6.30;99.90;;;6.84;100.00;96364.47;10380294;28;20683;-67
2023/12/13 06:21:21;;;;;;;7.43;5.80;;;6.30;99.90;;;6.86;100.00;96355.25;10377507;28;20226;-65
2023/12/13 06:26:25;;;;;;;4.57;4.17;;;6.30;99.90;;;6.84;100.00;96349.25;10377372;28;20227;-66
2023/12/13 06:31:28;;;;;;;4.50;4.07;;;6.30;99.90;;;6.84;100.00;96355.97;10369660;28;20763;-66
2023/12/13 06:36:32;;;;;;;4.83;3.90;;;6.30;99.90;;;6.82;100.00;96357.59;10378095;28;20307;-66
2023/12/13 06:41:40;;;;;;;3.47;3.17;;;6.30;99.90;;;6.77;100.00;96360.75;10379558;28;20245;-67
2023/12/13 06:46:43;;;;;;;3.20;2.97;;;6.20;99.90;;;6.75;100.00;96362.38;10368362;28;20245;-68
2023/12/13 06:51:46;;;;;;;3.13;2.83;;;6.20;99.90;;;6.76;100.00;96356.50;10377006;28;20233;-67
2023/12/13 06:56:51;;;;;;;3.63;3.33;;;6.20;99.90;;;6.71;100.00;96350.31;10379248;28;20324;-68
2023/12/13 07:01:54;;;;;;;2.67;2.40;;;6.20;99.90;;;6.70;100.00;96358.75;10370022;28;20324;-67
2023/12/13 07:06:58;;;;;;;2.40;2.20;;;6.10;99.90;;;6.74;100.00;96359.75;10369924;28;20602;-67
2023/12/13 07:12:03;;;;;;;2.07;1.97;;;6.20;99.90;;;6.79;100.00;96355.78;10369676;28;20233;-67
2023/12/13 07:17:06;;;;;;;3.83;2.60;;;6.20;99.90;;;6.76;100.00;96353.97;10371644;28;20244;-67
2023/12/13 07:22:09;;;;;;;3.77;3.27;;;6.30;99.90;;;6.84;100.00;96356.88;10365354;28;20733;-68
2023/12/13 07:27:14;;;;;;;3.77;3.47;;;6.30;99.90;;;6.84;100.00;96348.34;10363859;28;20542;-69
2023/12/13 07:32:17;;;;;;;2.70;2.50;;;6.30;99.90;;;6.87;100.00;96345.97;10375242;28;20649;-66
2023/12/13 07:37:20;;;;;;;4.27;3.97;;;6.30;99.90;;;6.90;100.00;96349.53;10376155;28;20288;-67
2023/12/13 07:42:25;;;;;;;6.20;5.63;;;6.30;99.90;;;6.88;100.00;96347.72;10377613;28;20283;-67
2023/12/13 07:47:28;;;;;;;5.07;4.60;;;6.40;99.90;;;6.83;100.00;96342.41;10368431;28;20239;-67
2023/12/13 07:52:31;;;;;;;8.10;5.63;;;6.30;99.90;;;6.92;100.00;96347.03;10368125;28;20230;-66
2023/12/13 07:57:36;;;;;;;6.27;5.30;;;6.40;99.90;;;6.96;100.00;96337.09;10369255;28;20271;-67
2023/12/13 08:02:39;;;;;;;5.03;4.57;;;6.50;99.90;;;7.06;100.00;96325.69;10369364;28;20607;-66
2023/12/13 08:07:48;;;;;;;4.67;4.27;;;6.60;99.90;;;6.99;100.00;96322.00;10366198;28;20292;-66
2023/12/13 08:12:53;;;;;;;5.90;3.97;;;6.50;99.90;;;7.02;100.00;96328.03;10357173;28;20261;-67
2023/12/13 08:17:56;;;;;;;4.27;3.77;;;6.60;99.90;;;7.09;100.00;96328.38;10374119;28;20666;-67
2023/12/13 08:23:03;;;;;;;4.60;4.20;;;6.60;99.90;;;7.13;100.00;96330.25;10380388;28;20783;-68
2023/12/13 08:28:08;;;;;;;4.47;4.07;;;6.60;99.90;;;7.22;100.00;96329.81;10379949;28;20241;-68
2023/12/13 08:33:11;;;;;;;4.50;4.10;;;6.60;99.90;;;7.06;100.00;96335.84;10377812;28;20260;-67
2023/12/13 08:38:15;;;;;;;8.17;4.93;;;6.60;99.90;;;7.13;100.00;96345.50;10373931;28;20635;-69
2023/12/13 08:43:19;;;;;;;8.97;7.43;;;6.60;99.90;;;7.17;100.00;96331.25;10380102;28;20288;-66
2023/12/13 08:48:23;;;;;;;3.67;3.20;;;6.70;99.90;;;7.18;100.00;96333.88;10376942;28;20754;-64
2023/12/13 08:53:26;;;;;;;4.63;4.10;;;6.70;99.90;;;7.23;100.00;96332.41;10371950;28;20230;-65
2023/12/13 08:58:31;;;;;;;2.90;2.60;;;6.70;99.90;;;7.31;100.00;96334.44;10385289;28;20717;-67
2023/12/13 09:03:34;;;;;;;2.13;2.00;;;6.80;99.90;;;7.14;100.00;96339.59;10381545;28;20231;-67
2023/12/13 09:08:37;;;;;;;2.10;2.00;;;6.60;99.90;;;7.23;100.00;96329.84;10376099;28;21063;-68
2023/12/13 09:13:42;;;;;;;2.57;2.47;;;6.70;99.90;;;7.20;100.00;96322.09;10379083;28;20236;-67
2023/12/13 09:18:45;;;;;;;2.23;2.10;;;6.70;99.90;;;7.24;100.00;96328.22;10382835;28;20230;-67
2023/12/13 09:23:48;;;;;;;3.20;2.87;;;6.80;99.90;;;7.23;100.00;96327.31;10375604;28;20590;-67
2023/12/13 09:28:55;;;;;;;3.00;2.80;;;6.80;99.90;;;7.31;100.00;96329.34;10378112;28;20317;-68
2023/12/13 09:33:58;;;;;;;3.40;3.17;;;6.80;99.90;;;7.42;100.00;96317.97;10385249;28;20320;-68
2023/12/13 09:39:02;;;;;;;3.70;3.40;;;7.00;99.90;;;7.52;100.00;96325.19;10378066;28;20722;-64
2023/12/13 09:44:07;;;;;;;6.73;5.80;;;7.10;99.90;;;7.53;100.00;96332.03;10379386;28;20251;-67
2023/12/13 09:49:10;;;;;;;8.67;7.80;;;7.10;99.90;;;7.59;100.00;96342.47;10379412;28;20226;-64
2023/12/13 09:54:32;;;;;;;11.80;9.57;;;7.10;99.90;;;7.54;100.00;96349.00;10370876;28;20229;-68
2023/12/13 09:59:40;;;;;;;9.33;8.10;;;7.10;99.90;;;7.51;100.00;96343.81;10378283;28;20448;-66
2023/12/13 10:04:45;;;;;;;10.73;9.53;;;7.10;99.90;;;7.55;100.00;96343.13;10375447;28;20221;-66
2023/12/13 10:09:49;;;;;;;8.87;7.97;;;7.20;99.90;;;7.70;100.00;96344.59;10378106;28;20233;-67
2023/12/13 10:14:53;;;;;;;9.67;8.80;;;7.30;99.90;;;7.84;100.00;96348.59;10377191;28;20264;-66
2023/12/13 10:19:57;;;;;;;9.30;8.43;;;7.30;99.90;;;7.90;100.00;96348.88;10383370;28;20237;-67
2023/12/13 10:25:00;;;;;;;9.30;8.40;;;7.40;99.90;;;7.75;100.00;96335.50;10367922;28;20765;-66
2023/12/13 10:30:07;;;;;;;7.75;7.05;;;7.30;99.90;;;7.88;100.00;96345.41;10368921;28;20234;-67
2023/12/13 10:35:11;;;;;;;9.25;8.35;;;7.50;99.90;;;8.33;100.00;96330.31;10376440;28;20237;-66
2023/12/13 10:40:17;;;;;;;8.70;7.90;;;7.70;99.90;;;8.09;100.00;96322.53;10371378;28;20225;-67
2023/12/13 10:45:24;;;;;;;11.00;9.97;;;7.60;99.90;;;8.06;100.00;96330.91;10373116;28;20218;-67
2023/12/13 10:50:28;;;;;;;11.53;10.33;;;7.60;99.90;;;8.08;100.00;96329.28;10368121;28;20234;-64
2023/12/13 10:55:31;;;;;;;9.88;8.15;;;7.60;99.90;;;8.08;100.00;96324.22;10378248;28;20313;-65
2023/12/13 11:00:38;;;;;;;4.85;4.43;;;7.60;99.90;;;8.26;100.00;96318.13;10370584;28;20241;-67
2023/12/13 11:05:41;;;;;;;7.37;6.30;;;7.80;99.90;;;8.32;100.00;96329.41;10371663;28;20284;-66
2023/12/13 11:11:03;;;;;;;7.32;6.65;;;7.90;99.90;;;8.45;100.00;96314.69;10374460;28;20321;-67
2023/12/13 11:16:17;;;;;;;12.57;10.55;;;8.00;99.90;;;8.55;100.00;96312.56;10368798;28;20217;-67
2023/12/13 11:21:29;;;;;;;11.02;9.95;;;8.00;99.90;;;8.50;100.00;96306.44;10370111;28;20238;-67
2023/12/13 11:26:33;;;;;;;9.93;8.77;;;8.00;99.90;;;8.62;100.00;96305.19;10371040;28;20252;-67
2023/12/13 11:31:37;;;;;;;10.55;9.55;;;8.20;99.90;;;8.73;100.00;96311.56;10368721;28;20792;-68
2023/12/13 11:36:42;;;;;;;17.98;12.70;;;8.30;99.90;;;8.85;100.00;96308.63;10370211;28;20234;-67
2023/12/13 11:41:45;;;;;;;11.88;10.30;;;8.30;99.90;;;8.95;100.00;96293.72;10376256;28;20684;-67
2023/12/13 11:46:55;;;;;;;8.18;5.60;;;8.50;99.90;;;9.16;100.00;96303.00;10369170;28;20218;-70
2023/12/13 11:52:00;;;;;;;6.15;5.57;;;8.60;99.90;;;9.21;100.00;96291.28;10382634;28;20241;-68
2023/12/13 11:57:13;;;;;;;5.97;4.55;;;8.60;99.90;;;9.31;100.00;96288.25;10377810;28;20236;-67
2023/12/13 12:02:19;;;;;;;5.57;4.63;;;8.70;99.90;;;9.60;100.00;96283.31;10375000;28;20317;-67
2023/12/13 12:07:22;;;;;;;5.35;4.82;;;8.90;99.90;;;9.39;100.00;96275.78;10374834;28;20338;-67
2023/12/13 12:12:26;;;;;;;7.00;6.32;;;8.70;99.90;;;9.22;100.00;96277.72;10377420;28;20597;-67
2023/12/13 12:17:31;;;;;;;7.60;5.80;;;8.60;99.90;;;9.29;100.00;96266.94;10378835;28;20714;-67
2023/12/13 12:22:36;;;;;;;8.38;7.57;;;8.70;99.90;;;9.29;100.00;96260.97;10375102;28;20238;-67
2023/12/13 12:27:46;;;;;;;7.35;6.65;;;8.70;99.90;;;9.31;100.00;96262.75;10379975;28;20300;-68
2023/12/13 12:32:51;;;;;;;5.22;3.78;;;8.70;99.90;;;9.23;100.00;96259.06;10385195;28;20373;-67
2023/12/13 12:37:54;;;;;;;3.78;3.40;;;8.70;99.90;;;9.29;100.00;96259.28;10380686;28;20596;-67
2023/12/13 12:42:57;;;;;;;4.15;3.83;;;8.80;99.90;;;9.52;100.00;96246.47;10378865;28;20221;-67
2023/12/13 12:48:02;;;;;;;4.20;3.90;;;8.90;99.90;;;9.57;100.00;96234.75;10370741;28;20616;-67
2023/12/13 12:53:06;;;;;;;2.90;2.70;;;9.00;99.90;;;9.53;100.00;96227.81;10369270;28;20225;-66
2023/12/13 12:58:09;;;;;;;4.30;3.78;;;9.00;99.90;;;9.54;100.00;96230.41;10379240;28;20240;-66
2023/12/13 13:03:14;;;;;;;2.85;2.65;;;9.10;99.90;;;9.56;100.00;96233.03;10377841;28;20597;-68
2023/12/13 13:08:17;;;;;;;4.32;3.22;;;9.00;99.90;;;9.44;100.00;96229.25;10379684;28;20252;-67
2023/12/13 13:13:20;;;;;;;4.43;3.00;;;8.90;99.90;;;9.50;100.00;96227.69;10380052;28;20494;-71
2023/12/13 13:18:25;;;;;;;6.22;3.67;;;9.00;99.90;;;9.68;100.00;96233.44;10369613;28;20229;-66
2023/12/13 13:23:29;;;;;;;4.13;3.70;;;9.10;99.90;;;9.78;100.00;96240.56;10372025;28;20880;-65
2023/12/13 13:28:32;;;;;;;3.60;3.25;;;9.20;99.90;;;9.69;100.00;96237.72;10381884;28;20234;-66
2023/12/13 13:33:38;;;;;;;2.83;2.55;;;9.20;99.90;;;9.83;100.00;96243.28;10380429;28;20230;-65
2023/12/13 13:38:42;;;;;;;2.90;2.70;;;9.20;99.90;;;9.71;100.00;96243.75;10382945;28;20226;-66
2023/12/13 13:43:45;;;;;;;2.22;2.08;;;9.20;99.90;;;9.64;100.00;96235.03;10386190;28;20230;-67
2023/12/13 13:48:52;;;;;;;4.18;2.78;;;9.10;99.90;;;9.58;100.00;96223.72;10377792;28;20233;-67
2023/12/13 13:53:55;;;;;;;3.70;3.00;;;9.00;99.90;;;9.60;100.00;96220.41;10376991;28;20217;-67
2023/12/13 13:58:58;;;;;;;3.22;2.67;;;9.10;99.90;;;9.61;100.00;96216.19;10375039;28;20230;-67
2023/12/13 14:04:03;;;;;;;2.60;2.35;;;9.00;99.90;;;9.61;100.00;96204.28;10372220;28;20230;-66
2023/12/13 14:09:07;;;;;;;5.30;2.75;;;9.00;99.90;;;9.88;100.00;96216.25;10378636;28;20222;-65
2023/12/13 14:14:11;;;;;;;4.13;2.80;;;9.20;99.90;;;9.68;100.00;96221.56;10379462;28;20710;-68
2023/12/13 14:19:15;;;;;;;2.83;2.63;;;9.00;99.90;;;9.48;100.00;96232.75;10374571;28;20232;-68
2023/12/13 14:24:18;;;;;;;3.03;2.75;;;9.00;99.90;;;9.50;100.00;96245.53;10376079;28;20227;-67
2023/12/13 14:29:22;;;;;;;4.45;3.80;;;8.90;99.90;;;9.46;100.00;96248.00;10373523;28;20245;-67
2023/12/13 14:34:30;;;;;;;5.65;5.05;;;8.90;99.90;;;9.46;100.00;96254.78;10382180;28;20245;-66
2023/12/13 14:39:34;;;;;;;4.10;3.80;;;8.90;99.90;;;9.39;100.00;96251.16;10375515;28;20265;-67
2023/12/13 14:44:37;;;;;;;4.57;3.22;;;8.80;99.90;;;9.21;100.00;96256.47;10370753;28;20232;-68
2023/12/13 14:49:42;;;;;;;5.03;4.22;;;8.70;99.90;;;9.33;100.00;96285.75;10368497;28;20237;-67
2023/12/13 14:54:45;;;;;;;19.55;13.70;;;8.70;99.90;;;9.01;100.00;96309.25;10368666;28;20315;-66
2023/12/13 14:59:48;;;;;;;28.65;19.65;;;8.20;99.90;;;8.56;100.00;96319.41;10373672;28;20240;-66
2023/12/13 15:04:53;;;;;;;10.52;7.15;;;7.80;99.90;;;8.10;100.00;96316.66;10369801;28;20233;-66
2023/12/13 15:09:56;;;;;;;11.32;8.02;;;7.50;99.90;;;7.91;100.00;96320.09;10373429;28;20225;-65
2023/12/13 15:14:59;;;;;;;5.88;5.25;;;7.40;99.90;;;7.72;100.00;96326.06;10379787;28;20240;-66
2023/12/13 15:20:08;;;;;;;6.18;5.03;;;7.20;99.90;;;7.57;100.00;96323.72;10370773;28;20253;-66
2023/12/13 15:25:12;;;;;;;6.00;4.90;;;7.10;99.90;;;7.50;100.00;96321.72;10378487;28;20241;-67
2023/12/13 15:30:20;;;;;;;4.97;3.20;;;7.00;99.90;;;7.45;100.00;96329.16;10382061;28;20236;-65
2023/12/13 15:35:25;;;;;;;2.80;2.60;;;7.00;99.90;;;7.47;100.00;96333.41;10389359;28;20237;-65
2023/12/13 15:40:28;;;;;;;2.25;2.13;;;7.00;99.90;;;7.48;100.00;96333.50;10375259;28;20230;-66
2023/12/13 15:45:31;;;;;;;2.42;2.22;;;7.00;99.90;;;7.39;100.00;96343.25;10375166;28;20357;-66
2023/12/13 15:50:36;;;;;;;5.43;3.90;;;6.90;99.90;;;7.32;100.00;96341.25;10378923;28;20240;-66
2023/12/13 15:55:39;;;;;;;4.30;3.90;;;6.90;99.90;;;7.36;100.00;96353.28;10387855;28;20313;-67
2023/12/13 16:00:42;;;;;;;5.67;2.83;;;6.90;99.90;;;7.37;100.00;96363.50;10378625;28;20800;-66
2023/12/13 16:05:48;;;;;;;3.40;2.57;;;6.90;99.90;;;7.42;100.00;96373.91;10380516;28;20230;-66
2023/12/13 16:10:51;;;;;;;3.37;2.73;;;6.90;99.90;;;7.48;100.00;96369.09;10377912;28;20233;-66
2023/12/13 16:15:58;;;;;;;3.13;2.83;;;6.90;99.90;;;7.40;100.00;96370.41;10378727;28;20230;-66
2023/12/13 16:21:03;;;;;;;4.23;3.93;;;6.90;99.90;;;7.32;100.00;96380.22;10380977;28;20241;-66
2023/12/13 16:26:07;;;;;;;4.93;4.53;;;6.80;99.90;;;7.23;100.00;96380.69;10379148;28;20225;-67
2023/12/13 16:31:10;;;;;;;4.27;3.77;;;6.70;99.90;;;7.12;100.00;96379.31;10382907;28;20317;-67
2023/12/13 16:36:14;;;;;;;5.77;5.20;;;6.70;99.90;;;7.12;100.00;96394.56;10371400;28;20786;-67
2023/12/13 16:41:18;;;;;;;6.30;5.77;;;6.70;99.90;;;7.14;100.00;96392.09;10372287;28;20241;-65
2023/12/13 16:46:22;;;;;;;7.03;6.33;;;6.70;99.90;;;7.13;100.00;96405.63;10380889;28;20597;-67
2023/12/13 16:51:28;;;;;;;5.20;4.80;;;6.70;99.90;;;7.11;100.00;96403.00;10370987;28;20226;-69
2023/12/13 16:56:31;;;;;;;13.77;12.50;;;6.60;99.90;;;7.10;100.00;96400.38;10374029;28;20721;-66
2023/12/13 17:01:34;;;;;;;21.77;19.43;;;6.60;99.90;;;7.06;100.00;96399.34;10371178;28;20230;-67
2023/12/13 17:06:38;;;;;;;21.10;19.30;;;6.60;99.90;;;7.17;100.00;96407.47;10370311;28;21096;-65
2023/12/13 17:11:41;;;;;;;18.23;16.60;;;6.70;99.90;;;7.17;100.00;96403.25;10372051;28;20236;-67
2023/12/13 17:16:45;;;;;;;13.30;12.00;;;6.60;99.90;;;7.03;100.00;96413.59;10372264;28;20238;-67
2023/12/13 17:21:49;;;;;;;8.67;7.97;;;6.50;99.90;;;6.77;100.00;96416.63;10372432;28;20236;-66
2023/12/13 17:26:54;;;;;;;10.17;9.33;;;6.40;99.90;;;6.83;100.00;96423.66;10378561;28;20620;-66
2023/12/13 17:31:57;;;;;;;7.43;6.83;;;6.40;99.90;;;6.89;100.00;96435.78;10367557;28;20230;-67
2023/12/13 17:37:02;;;;;;;11.47;10.40;;;6.50;99.90;;;6.92;100.00;96441.00;10370101;28;20222;-68
2023/12/13 17:42:05;;;;;;;11.83;10.63;;;6.50;99.90;;;6.95;100.00;96461.47;10370112;28;20236;-67
2023/12/13 17:47:08;;;;;;;22.10;17.23;;;6.50;99.90;;;6.95;100.00;96462.38;10362308;28;20234;-66
2023/12/13 17:52:14;;;;;;;10.67;9.70;;;6.50;99.90;;;7.04;100.00;96474.66;10369072;28;20253;-66
2023/12/13 17:57:17;;;;;;;14.87;13.30;;;6.60;99.90;;;7.09;100.00;96464.69;10369243;28;20230;-66
2023/12/13 18:02:21;;;;;;;16.10;12.90;;;6.60;99.90;;;7.02;100.00;96473.69;10372029;28;20222;-68
2023/12/13 18:07:25;;;;;;;20.93;18.70;;;6.60;99.90;;;6.95;100.00;96471.63;10370234;28;20280;-68
2023/12/13 18:12:29;;;;;;;20.13;18.00;;;6.50;99.90;;;6.97;100.00;96486.16;10370687;28;20250;-66
2023/12/13 18:17:33;;;;;;;19.97;17.93;;;6.50;99.90;;;6.96;100.00;96481.03;10370447;28;20650;-69
2023/12/13 18:22:38;;;;;;;20.50;18.40;;;6.50;99.90;;;6.92;100.00;96484.19;10360536;28;20285;-65
2023/12/13 18:27:41;;;;;;;17.73;15.93;;;6.40;99.90;;;6.95;100.00;96485.22;10373855;28;20325;-67
2023/12/13 18:32:45;;;;;;;15.67;14.07;;;6.50;99.90;;;7.01;100.00;96489.75;10364627;28;20578;-68
2023/12/13 18:37:49;;;;;;;15.87;14.33;;;6.50;99.90;;;7.00;100.00;96503.22;10362370;28;20698;-66
2023/12/13 18:42:53;;;;;;;15.80;14.30;;;6.50;99.90;;;7.02;100.00;96511.78;10378897;28;20674;-67
2023/12/13 18:47:56;;;;;;;17.47;15.67;;;6.50;99.90;;;7.04;100.00;96506.78;10360792;28;20312;-66
2023/12/13 18:53:01;;;;;;;17.63;15.87;;;6.50;99.90;;;7.07;100.00;96515.44;10364889;28;20229;-66
2023/12/13 18:58:04;;;;;;;20.50;18.40;;;6.60;99.90;;;7.04;100.00;96512.75;10354323;28;20349;-67
2023/12/13 19:03:07;;;;;;;18.27;16.43;;;6.50;99.90;;;7.05;100.00;96523.78;10369595;28;20683;-67
2023/12/13 19:08:13;;;;;;;31.23;25.83;;;6.50;99.90;;;6.99;100.00;96526.88;10364765;28;20243;-68
2023/12/13 19:13:16;;;;;;;25.83;21.83;;;6.50;99.90;;;6.99;100.00;96529.44;10371319;28;20221;-66
2023/12/13 19:18:22;;;;;;;20.20;17.90;;;6.50;99.90;;;7.00;100.00;96538.78;10361221;28;20229;-68
2023/12/13 19:23:27;;;;;;;19.57;17.53;;;6.50;99.90;;;6.97;100.00;96541.16;10367310;28;20231;-66
2023/12/13 19:28:30;;;;;;;22.10;19.57;;;6.50;99.90;;;6.98;100.00;96531.09;10365415;28;20234;-66
2023/12/13 19:33:33;;;;;;;19.33;17.00;;;6.40;99.90;;;6.91;100.00;96544.28;10361190;28;20270;-67
2023/12/13 19:38:38;;;;;;;20.13;18.17;;;6.40;99.90;;;6.95;100.00;96550.38;10366231;28;20328;-65
2023/12/13 19:43:41;;;;;;;21.93;18.97;;;6.40;99.90;;;6.93;100.00;96552.00;10366053;28;20246;-66
2023/12/13 19:48:45;;;;;;;19.53;17.57;;;6.40;99.90;;;6.96;100.00;96554.69;10357298;28;20234;-66
2023/12/13 19:53:50;;;;;;;19.90;17.90;;;6.50;99.90;;;6.99;100.00;96565.00;10358474;28;20725;-69
2023/12/13 19:58:53;;;;;;;20.00;17.97;;;6.50;99.90;;;6.95;100.00;96578.31;10357923;28;20321;-67
2023/12/13 20:03:56;;;;;;;24.73;22.33;;;6.40;99.90;;;6.95;100.00;96584.28;10375906;28;20229;-66
2023/12/13 20:09:01;;;;;;;28.73;25.77;;;6.40;99.90;;;6.96;100.00;96595.31;10356496;28;20230;-68
2023/12/13 20:14:04;;;;;;;23.00;20.60;;;6.40;99.90;;;6.99;100.00;96608.16;10360936;28;20744;-66
2023/12/13 20:19:07;;;;;;;21.67;18.80;;;6.50;99.90;;;6.97;100.00;96607.22;10366832;28;20603;-64
2023/12/13 20:24:12;;;;;;;20.13;18.13;;;6.50;99.90;;;6.98;100.00;96614.94;10369270;28;20309;-68
2023/12/13 20:29:16;;;;;;;18.93;16.93;;;6.40;99.90;;;7.02;100.00;96613.41;10367988;28;20308;-67
2023/12/13 20:34:19;;;;;;;20.67;17.67;;;6.50;99.90;;;7.11;100.00;96613.84;10354122;28;20322;-69
2023/12/13 20:39:24;;;;;;;20.60;16.67;;;6.50;99.90;;;7.00;100.00;96627.69;10368227;28;20272;-66
2023/12/13 20:44:27;;;;;;;19.33;16.27;;;6.50;99.90;;;7.00;100.00;96626.00;10369902;28;20610;-66
2023/12/13 20:49:30;;;;;;;24.10;17.77;;;6.40;99.90;;;6.90;100.00;96628.91;10370667;28;22579;-67
2023/12/13 20:54:35;;;;;;;28.87;23.20;;;6.40;99.90;;;6.91;100.00;96638.25;10371778;28;20368;-68
2023/12/13 20:59:38;;;;;;;29.60;23.50;;;6.40;99.90;;;6.88;100.00;96643.19;10358164;28;20231;-67
2023/12/13 21:04:41;;;;;;;31.43;24.67;;;6.40;99.90;;;6.89;100.00;96644.03;10360241;28;20313;-67
2023/12/13 21:09:46;;;;;;;36.80;25.43;;;6.40;99.90;;;6.94;100.00;96650.25;10370537;28;20225;-68